createdAt,value
2019-05-26T00:00:46.172Z,98260.17
2019-05-26T00:03:14.979Z,98262.74
2019-05-26T00:05:43.688Z,98258.42
2019-05-26T00:08:12.437Z,98257.23
2019-05-26T00:10:41.148Z,98267.42
2019-05-26T00:13:09.861Z,98269.72
2019-05-26T00:15:38.571Z,98271.56
2019-05-26T00:18:07.287Z,98269.41
2019-05-26T00:20:36.022Z,98274.21
2019-05-26T00:23:04.728Z,98271.14
2019-05-26T00:25:33.435Z,98275.94
2019-05-26T00:28:02.149Z,98271.52
2019-05-26T00:30:30.851Z,98266.72
2019-05-26T00:32:59.600Z,98269.34
2019-05-26T00:35:28.308Z,98278.97
2019-05-26T00:37:57.039Z,98279.02
2019-05-26T00:40:25.750Z,98285.97
2019-05-26T00:42:54.458Z,98283.37
2019-05-26T00:45:23.614Z,98288.58
2019-05-26T00:47:52.319Z,98279.84
2019-05-26T00:50:21.127Z,98280.30
2019-05-26T00:52:49.851Z,98280.30
2019-05-26T00:55:18.660Z,98281.19
2019-05-26T00:57:47.454Z,98279.86
2019-05-26T01:00:19.072Z,98283.38
2019-05-26T01:02:47.782Z,98284.63
2019-05-26T01:05:16.590Z,98278.94
2019-05-26T01:07:45.294Z,98280.68
2019-05-26T01:10:14.127Z,98274.98
2019-05-26T01:12:42.880Z,98274.52
2019-05-26T01:15:11.695Z,98274.08
2019-05-26T01:17:40.401Z,98281.07
2019-05-26T01:20:10.807Z,98282.00
2019-05-26T01:22:39.512Z,98284.64
2019-05-26T01:25:08.522Z,98284.70
2019-05-26T01:27:37.565Z,98289.95
2019-05-26T01:30:08.172Z,98290.83
2019-05-26T01:32:36.956Z,98292.16
2019-05-26T01:35:07.101Z,98289.17
2019-05-26T01:37:37.321Z,98289.62
2019-05-26T01:40:07.882Z,98291.86
2019-05-26T01:42:36.651Z,98288.34
2019-05-26T01:45:07.328Z,98290.52
2019-05-26T01:47:36.033Z,98283.54
2019-05-26T01:50:06.239Z,98287.00
2019-05-26T01:52:34.955Z,98279.16
2019-05-26T01:55:04.597Z,98266.57
2019-05-26T01:57:33.297Z,98283.11
2019-05-26T02:00:02.005Z,98292.25
2019-05-26T02:02:30.724Z,98292.72
2019-05-26T02:04:59.428Z,98299.69
2019-05-26T02:07:28.176Z,98299.69
2019-05-26T02:09:56.887Z,98305.83
2019-05-26T02:12:25.590Z,98302.37
2019-05-26T02:14:54.343Z,98305.88
2019-05-26T02:17:23.051Z,98312.81
2019-05-26T02:19:51.757Z,98310.67
2019-05-26T02:22:20.524Z,98311.09
2019-05-26T02:24:49.231Z,98308.94
2019-05-26T02:27:17.942Z,98306.75
2019-05-26T02:29:46.659Z,98311.56
2019-05-26T02:32:15.366Z,98308.09
2019-05-26T02:34:44.114Z,98302.41
2019-05-26T02:37:12.828Z,98297.62
2019-05-26T02:39:41.526Z,98297.62
2019-05-26T02:42:10.436Z,98297.61
2019-05-26T02:44:39.148Z,98295.88
2019-05-26T02:47:07.901Z,98294.59
2019-05-26T02:49:36.707Z,98293.70
2019-05-26T02:52:05.511Z,98293.27
2019-05-26T02:54:34.231Z,98290.66
2019-05-26T02:57:02.939Z,98293.68
2019-05-26T02:59:31.712Z,98291.53
2019-05-26T03:02:03.993Z,98291.55
2019-05-26T03:04:30.858Z,98289.33
2019-05-26T03:07:01.435Z,98300.21
2019-05-26T03:09:30.945Z,98287.16
2019-05-26T03:12:02.189Z,98292.36
2019-05-26T03:14:33.561Z,98291.94
2019-05-26T03:17:03.177Z,98291.48
2019-05-26T03:19:35.418Z,98292.33
2019-05-26T03:22:05.425Z,98289.69
2019-05-26T03:24:34.265Z,98299.16
2019-05-26T03:27:02.963Z,98304.95
2019-05-26T03:29:31.674Z,98304.34
2019-05-26T03:32:00.558Z,98304.39
2019-05-26T03:34:29.250Z,98302.80
2019-05-26T03:36:57.958Z,98298.80
2019-05-26T03:39:43.376Z,98304.54
2019-05-26T03:41:57.096Z,98305.48
2019-05-26T03:44:25.837Z,98305.71
2019-05-26T03:46:54.606Z,98303.52
2019-05-26T03:49:23.305Z,98306.89
2019-05-26T03:51:52.060Z,98301.46
2019-05-26T03:54:20.772Z,98305.27
2019-05-26T03:56:49.497Z,98304.58
2019-05-26T03:59:18.183Z,98310.86
2019-05-26T04:01:46.893Z,98303.14
2019-05-26T04:04:15.637Z,98306.21
2019-05-26T04:06:44.338Z,98303.23
2019-05-26T04:09:13.049Z,98314.77
2019-05-26T04:11:41.823Z,98310.63
2019-05-26T04:14:11.127Z,98302.61
2019-05-26T04:16:39.843Z,98313.88
2019-05-26T04:19:08.539Z,98313.46
2019-05-26T04:21:37.240Z,98314.86
2019-05-26T04:24:06.256Z,98310.52
2019-05-26T04:26:34.939Z,98315.47
2019-05-26T04:29:03.647Z,98314.09
2019-05-26T04:31:32.358Z,98312.44
2019-05-26T04:34:01.060Z,98315.12
2019-05-26T04:36:29.831Z,98315.66
2019-05-26T04:38:58.540Z,98316.22
2019-05-26T04:41:27.244Z,98316.28
2019-05-26T04:43:55.991Z,98315.22
2019-05-26T04:46:24.697Z,98313.02
2019-05-26T04:48:53.413Z,98313.92
2019-05-26T04:51:22.108Z,98318.77
2019-05-26T04:53:50.805Z,98315.70
2019-05-26T04:56:19.551Z,98324.53
2019-05-26T04:58:48.261Z,98327.36
2019-05-26T05:01:17.029Z,98335.62
2019-05-26T05:03:45.785Z,98327.55
2019-05-26T05:06:14.497Z,98330.60
2019-05-26T05:08:43.204Z,98335.72
2019-05-26T05:11:11.936Z,98339.14
2019-05-26T05:13:40.723Z,98344.17
2019-05-26T05:16:09.494Z,98342.00
2019-05-26T05:18:38.200Z,98338.56
2019-05-26T05:21:06.906Z,98332.74
2019-05-26T05:23:35.682Z,98334.59
2019-05-26T05:26:04.406Z,98334.37
2019-05-26T05:28:33.174Z,98348.02
2019-05-26T05:31:01.874Z,98340.60
2019-05-26T05:33:30.574Z,98348.63
2019-05-26T05:35:59.334Z,98352.66
2019-05-26T05:38:28.110Z,98350.71
2019-05-26T05:41:00.010Z,98353.41
2019-05-26T05:43:27.247Z,98347.45
2019-05-26T05:45:55.958Z,98345.59
2019-05-26T05:48:24.705Z,98342.75
2019-05-26T05:50:53.472Z,98349.34
2019-05-26T05:53:22.195Z,98346.69
2019-05-26T05:55:50.906Z,98352.30
2019-05-26T05:58:19.612Z,98359.40
2019-05-26T06:00:48.352Z,98363.58
2019-05-26T06:03:18.819Z,98361.08
2019-05-26T06:05:47.648Z,98361.66
2019-05-26T06:08:16.352Z,98355.84
2019-05-26T06:10:45.055Z,98352.25
2019-05-26T06:13:13.801Z,98354.30
2019-05-26T06:15:42.503Z,98359.70
2019-05-26T06:18:11.207Z,98359.77
2019-05-26T06:20:39.923Z,98363.08
2019-05-26T06:23:08.630Z,98363.66
2019-05-26T06:25:37.798Z,98357.08
2019-05-26T06:28:06.518Z,98357.70
2019-05-26T06:30:35.223Z,98358.38
2019-05-26T06:33:03.931Z,98356.16
2019-05-26T06:35:33.157Z,98354.04
2019-05-26T06:38:01.975Z,98354.83
2019-05-26T06:42:37.023Z,98352.17
2019-05-26T06:45:07.441Z,98354.05
2019-05-26T06:47:36.116Z,98353.50
2019-05-26T06:50:06.757Z,98351.91
2019-05-26T06:52:35.470Z,98355.95
2019-05-26T06:55:05.904Z,98358.53
2019-05-26T06:57:34.636Z,98360.58
2019-05-26T07:00:04.539Z,98365.03
2019-05-26T07:02:33.306Z,98363.37
2019-05-26T07:05:01.988Z,98358.09
2019-05-26T07:07:30.698Z,98364.81
2019-05-26T07:09:59.402Z,98364.20
2019-05-26T07:12:28.113Z,98364.88
2019-05-26T07:14:57.163Z,98363.45
2019-05-26T07:17:25.863Z,98360.08
2019-05-26T07:19:54.572Z,98352.84
2019-05-26T07:22:23.333Z,98356.80
2019-05-26T07:24:52.043Z,98355.05
2019-05-26T07:27:20.754Z,98350.44
2019-05-26T07:29:49.466Z,98352.11
2019-05-26T07:32:18.229Z,98356.64
2019-05-26T07:34:47.003Z,98352.92
2019-05-26T07:37:15.696Z,98352.59
2019-05-26T07:39:44.423Z,98349.08
2019-05-26T07:42:13.119Z,98354.63
2019-05-26T07:44:41.823Z,98354.31
2019-05-26T07:47:10.569Z,98359.39
2019-05-26T07:49:39.274Z,98360.20
2019-05-26T07:52:07.989Z,98352.23
2019-05-26T07:54:36.702Z,98336.66
2019-05-26T07:57:05.530Z,98336.66
2019-05-26T07:59:34.075Z,98354.43
2019-05-26T08:02:02.777Z,98356.28
2019-05-26T08:04:31.480Z,98351.95
2019-05-26T08:07:00.299Z,98351.12
2019-05-26T08:09:29.014Z,98356.16
2019-05-26T08:11:57.738Z,98347.72
2019-05-26T08:14:26.460Z,98347.72
2019-05-26T08:16:55.173Z,98344.83
2019-05-26T08:19:23.919Z,98335.07
2019-05-26T08:21:54.662Z,98350.81
2019-05-26T08:24:23.051Z,98347.87
2019-05-26T08:26:52.075Z,98337.82
2019-05-26T08:29:20.783Z,98342.83
2019-05-26T08:31:49.546Z,98346.41
2019-05-26T08:34:18.255Z,98340.91
2019-05-26T08:36:46.962Z,98344.16
2019-05-26T08:39:15.712Z,98346.55
2019-05-26T08:41:44.422Z,98342.91
2019-05-26T08:44:13.128Z,98342.03
2019-05-26T08:46:41.852Z,98342.03
2019-05-26T08:49:10.859Z,98340.03
2019-05-26T08:51:39.596Z,98343.20
2019-05-26T08:54:08.303Z,98338.70
2019-05-26T08:56:37.015Z,98341.72
2019-05-26T08:59:05.822Z,98336.55
2019-05-26T09:01:34.570Z,98343.30
2019-05-26T09:04:03.269Z,98341.17
2019-05-26T09:06:31.975Z,98341.75
2019-05-26T09:09:00.679Z,98336.02
2019-05-26T09:11:29.424Z,98332.98
2019-05-26T09:13:58.148Z,98332.23
2019-05-26T09:16:26.854Z,98335.12
2019-05-26T09:18:55.610Z,98330.94
2019-05-26T09:21:24.307Z,98328.92
2019-05-26T09:23:53.017Z,98333.66
2019-05-26T09:26:21.733Z,98318.77
2019-05-26T09:28:50.434Z,98318.77
2019-05-26T09:31:19.178Z,98328.91
2019-05-26T09:33:47.910Z,98328.91
2019-05-26T09:36:16.690Z,98315.31
2019-05-26T09:38:45.428Z,98323.83
2019-05-26T09:41:14.120Z,98323.83
2019-05-26T09:43:42.879Z,98319.78
2019-05-26T09:46:11.584Z,98321.73
2019-05-26T09:48:40.288Z,98321.56
2019-05-26T09:51:09.006Z,98312.89
2019-05-26T09:53:37.722Z,98312.89
2019-05-26T09:56:06.610Z,98317.58
2019-05-26T09:58:35.321Z,98316.91
2019-05-26T10:01:04.044Z,98300.30
2019-05-26T10:03:32.777Z,98307.93
2019-05-26T10:06:01.479Z,98298.27
2019-05-26T10:08:30.219Z,98297.88
2019-05-26T10:10:58.927Z,98296.08
2019-05-26T10:13:31.807Z,98306.06
2019-05-26T10:15:58.092Z,98297.24
2019-05-26T10:18:26.809Z,98299.61
2019-05-26T10:20:55.630Z,98294.23
2019-05-26T10:23:24.326Z,98294.12
2019-05-26T10:25:53.039Z,98286.20
2019-05-26T10:28:21.753Z,98285.73
2019-05-26T10:30:50.454Z,98285.98
2019-05-26T10:33:19.210Z,98278.23
2019-05-26T10:35:47.925Z,98285.59
2019-05-26T10:38:16.618Z,98289.69
2019-05-26T10:40:45.329Z,98277.06
2019-05-26T10:43:14.042Z,98272.90
2019-05-26T10:45:42.740Z,98273.02
2019-05-26T10:48:11.458Z,98278.14
2019-05-26T10:50:40.157Z,98271.16
2019-05-26T10:53:08.872Z,98276.55
2019-05-26T10:55:37.596Z,98277.36
2019-05-26T10:58:06.308Z,98272.75
2019-05-26T11:00:35.019Z,98281.12
2019-05-26T11:03:03.771Z,98272.40
2019-05-26T11:05:32.473Z,98272.53
2019-05-26T11:08:01.182Z,98262.74
2019-05-26T11:10:29.933Z,98262.74
2019-05-26T11:12:58.625Z,98265.17
2019-05-26T11:15:27.327Z,98268.30
2019-05-26T11:17:56.037Z,98262.53
2019-05-26T11:20:24.745Z,98261.67
2019-05-26T11:22:53.496Z,98265.64
2019-05-26T11:25:22.198Z,98263.36
2019-05-26T11:27:50.904Z,98259.89
2019-05-26T11:30:20.853Z,98259.02
2019-05-26T11:32:49.571Z,98263.87
2019-05-26T11:35:21.545Z,98261.00
2019-05-26T11:37:50.252Z,98261.65
2019-05-26T11:40:19.058Z,98264.02
2019-05-26T11:42:47.804Z,98264.20
2019-05-26T11:45:16.707Z,98258.31
2019-05-26T11:47:45.415Z,98257.66
2019-05-26T11:50:15.573Z,98262.86
2019-05-26T11:52:44.275Z,98259.87
2019-05-26T11:55:14.379Z,98255.16
2019-05-26T11:57:43.096Z,98255.58
2019-05-26T12:00:15.975Z,98256.37
2019-05-26T12:02:46.521Z,98255.39
2019-05-26T12:05:17.749Z,98248.75
2019-05-26T12:07:45.884Z,98244.62
2019-05-26T12:10:15.091Z,98237.58
2019-05-26T12:12:43.806Z,98251.34
2019-05-26T12:15:13.752Z,98248.17
2019-05-26T12:17:42.460Z,98246.39
2019-05-26T12:20:11.772Z,98245.95
2019-05-26T12:22:40.532Z,98243.73
2019-05-26T12:25:09.735Z,98237.09
2019-05-26T12:27:38.439Z,98233.49
2019-05-26T12:30:09.251Z,98234.27
2019-05-26T12:32:37.961Z,98227.63
2019-05-26T12:35:08.981Z,98224.80
2019-05-26T12:37:38.292Z,98224.67
2019-05-26T12:40:07.895Z,98223.02
2019-05-26T12:42:36.645Z,98225.04
2019-05-26T12:45:09.300Z,98226.92
2019-05-26T12:47:38.108Z,98221.98
2019-05-26T12:50:07.617Z,98222.25
2019-05-26T12:52:36.425Z,98210.70
2019-05-26T12:55:09.308Z,98223.77
2019-05-26T12:57:37.895Z,98215.76
2019-05-26T13:00:11.114Z,98212.58
2019-05-26T13:02:39.822Z,98214.64
2019-05-26T13:05:09.744Z,98207.40
2019-05-26T13:07:38.492Z,98203.23
2019-05-26T13:10:09.401Z,98191.69
2019-05-26T13:12:38.177Z,98199.08
2019-05-26T13:15:09.556Z,98199.08
2019-05-26T13:17:38.266Z,98191.59
2019-05-26T13:20:07.817Z,98189.59
2019-05-26T13:22:36.674Z,98193.42
2019-05-26T13:25:07.812Z,98197.05
2019-05-26T13:27:36.570Z,98193.34
2019-05-26T13:30:16.789Z,98190.93
2019-05-26T13:32:45.543Z,98190.58
2019-05-26T13:35:14.649Z,98187.59
2019-05-26T13:37:43.347Z,98186.50
2019-05-26T13:40:13.262Z,98186.12
2019-05-26T13:42:41.974Z,98184.14
2019-05-26T13:45:21.983Z,98179.21
2019-05-26T13:47:42.343Z,98175.03
2019-05-26T13:50:12.957Z,98171.44
2019-05-26T13:52:41.670Z,98175.07
2019-05-26T13:55:10.675Z,98172.81
2019-05-26T13:57:39.442Z,98173.30
2019-05-26T14:00:10.889Z,98171.52
2019-05-26T14:02:40.033Z,98175.24
2019-05-26T14:05:09.045Z,98172.72
2019-05-26T14:07:37.750Z,98168.58
2019-05-26T14:10:08.618Z,98169.73
2019-05-26T14:12:37.335Z,98169.36
2019-05-26T14:15:09.676Z,98171.13
2019-05-26T14:17:39.937Z,98168.11
2019-05-26T14:20:10.174Z,98174.49
2019-05-26T14:22:38.993Z,98172.53
2019-05-26T14:25:08.029Z,98180.07
2019-05-26T14:27:36.863Z,98175.77
2019-05-26T14:30:10.062Z,98171.97
2019-05-26T14:32:38.759Z,98172.28
2019-05-26T14:35:08.002Z,98171.58
2019-05-26T14:37:36.722Z,98168.14
2019-05-26T14:40:08.078Z,98176.27
2019-05-26T14:42:36.805Z,98175.07
2019-05-26T14:45:09.068Z,98173.45
2019-05-26T14:47:37.831Z,98175.22
2019-05-26T14:50:10.531Z,98167.19
2019-05-26T14:52:39.438Z,98176.08
2019-05-26T14:55:08.743Z,98172.77
2019-05-26T14:57:37.451Z,98176.12
2019-05-26T15:00:08.459Z,98168.92
2019-05-26T15:02:37.302Z,98163.48
2019-05-26T15:05:08.204Z,98167.73
2019-05-26T15:07:36.955Z,98173.61
2019-05-26T15:10:09.276Z,98163.24
2019-05-26T15:12:37.989Z,98165.52
2019-05-26T15:15:07.895Z,98158.48
2019-05-26T15:17:36.608Z,98167.75
2019-05-26T15:20:07.028Z,98168.28
2019-05-26T15:22:36.045Z,98162.25
2019-05-26T15:25:07.259Z,98169.91
2019-05-26T15:27:36.370Z,98168.20
2019-05-26T15:30:07.045Z,98166.61
2019-05-26T15:32:35.799Z,98172.90
2019-05-26T15:35:06.615Z,98166.42
2019-05-26T15:37:35.322Z,98178.69
2019-05-26T15:40:10.325Z,98175.86
2019-05-26T15:42:39.037Z,98175.86
2019-05-26T15:45:09.648Z,98166.58
2019-05-26T15:47:38.367Z,98164.22
2019-05-26T15:50:07.873Z,98166.64
2019-05-26T15:52:36.738Z,98163.97
2019-05-26T15:55:06.846Z,98162.47
2019-05-26T15:57:35.550Z,98166.17
2019-05-26T16:00:06.372Z,98162.09
2019-05-26T16:02:35.073Z,98166.34
2019-05-26T16:05:04.989Z,98162.91
2019-05-26T16:07:33.797Z,98153.64
2019-05-26T16:10:02.506Z,98157.11
2019-05-26T16:12:31.252Z,98159.59
2019-05-26T16:14:59.963Z,98152.30
2019-05-26T16:17:28.663Z,98150.98
2019-05-26T16:19:57.366Z,98156.59
2019-05-26T16:22:26.068Z,98155.25
2019-05-26T16:24:54.825Z,98156.47
2019-05-26T16:32:33.898Z,98167.93
2019-05-26T16:35:02.593Z,98160.55
2019-05-26T16:37:31.793Z,98156.95
2019-05-26T16:40:05.841Z,98161.36
2019-05-26T16:42:34.553Z,98156.95
2019-05-26T16:45:03.992Z,98163.90
2019-05-26T16:47:32.687Z,98160.81
2019-05-26T16:50:01.695Z,98158.89
2019-05-26T16:52:32.379Z,98167.09
2019-05-26T16:55:01.081Z,98173.20
2019-05-26T16:57:29.830Z,98175.21
2019-05-26T16:59:58.548Z,98166.88
2019-05-26T17:02:27.261Z,98164.28
2019-05-26T17:04:55.990Z,98172.09
2019-05-26T17:07:24.705Z,98174.84
2019-05-26T17:09:53.468Z,98173.28
2019-05-26T17:12:22.178Z,98172.32
2019-05-26T17:14:50.879Z,98172.30
2019-05-26T17:17:19.598Z,98176.43
2019-05-26T17:19:48.311Z,98173.23
2019-05-26T17:22:17.087Z,98182.14
2019-05-26T17:24:47.298Z,98185.46
2019-05-26T17:27:16.015Z,98188.39
2019-05-26T17:29:44.787Z,98188.98
2019-05-26T17:32:13.506Z,98193.15
2019-05-26T17:34:42.226Z,98198.01
2019-05-26T17:37:11.011Z,98197.06
2019-05-26T17:39:39.930Z,98196.92
2019-05-26T17:42:08.647Z,98208.27
2019-05-26T17:44:37.381Z,98207.46
2019-05-26T17:47:06.087Z,98205.97
2019-05-26T17:49:34.857Z,98205.52
2019-05-26T17:52:03.569Z,98210.47
2019-05-26T17:54:32.669Z,98211.19
2019-05-26T17:57:01.526Z,98206.05
2019-05-26T17:59:30.234Z,98209.77
2019-05-26T18:01:58.956Z,98215.83
2019-05-26T18:04:27.665Z,98220.23
2019-05-26T18:06:56.442Z,98219.42
2019-05-26T18:09:25.199Z,98213.02
2019-05-26T18:11:53.904Z,98215.92
2019-05-26T18:14:22.729Z,98222.91
2019-05-26T18:16:51.454Z,98224.00
2019-05-26T18:19:20.159Z,98227.78
2019-05-26T18:21:49.437Z,98225.82
2019-05-26T18:24:18.164Z,98227.84
2019-05-26T18:26:47.388Z,98231.02
2019-05-26T18:29:16.110Z,98238.27
2019-05-26T18:31:44.994Z,98241.16
2019-05-26T18:34:13.805Z,98245.28
2019-05-26T18:36:42.565Z,98239.14
2019-05-26T18:39:11.277Z,98240.53
2019-05-26T18:41:40.007Z,98245.91
2019-05-26T18:44:08.727Z,98245.70
2019-05-26T18:46:37.507Z,98247.53
2019-05-26T18:49:06.234Z,98245.39
2019-05-26T18:51:34.941Z,98249.37
2019-05-26T18:54:03.684Z,98252.22
2019-05-26T18:56:32.403Z,98255.41
2019-05-26T18:59:01.126Z,98258.33
2019-05-26T19:01:29.845Z,98264.14
2019-05-26T19:03:58.541Z,98269.66
2019-05-26T19:06:27.289Z,98266.19
2019-05-26T19:08:55.997Z,98277.53
2019-05-26T19:11:24.707Z,98276.75
2019-05-26T19:13:53.466Z,98281.80
2019-05-26T19:16:22.256Z,98278.72
2019-05-26T19:18:50.963Z,98283.28
2019-05-26T19:21:19.681Z,98286.37
2019-05-26T19:23:48.380Z,98282.05
2019-05-26T19:26:17.147Z,98296.53
2019-05-26T19:28:45.852Z,98297.17
2019-05-26T19:31:14.562Z,98294.09
2019-05-26T19:33:43.278Z,98293.63
2019-05-26T19:36:11.978Z,98299.31
2019-05-26T19:38:40.724Z,98302.88
2019-05-26T19:41:09.432Z,98306.59
2019-05-26T19:43:38.146Z,98304.85
2019-05-26T19:46:07.303Z,98304.85
2019-05-26T19:48:37.287Z,98315.02
2019-05-26T19:51:06.343Z,98317.41
2019-05-26T19:53:35.048Z,98319.46
2019-05-26T19:56:03.853Z,98316.83
2019-05-26T19:58:32.571Z,98325.64
2019-05-26T20:01:01.890Z,98323.17
2019-05-26T20:03:30.629Z,98328.75
2019-05-26T20:05:59.334Z,98325.13
2019-05-26T20:08:28.034Z,98324.25
2019-05-26T20:10:56.748Z,98321.84
2019-05-26T20:13:25.453Z,98321.36
2019-05-26T20:15:57.192Z,98322.14
2019-05-26T20:18:25.904Z,98327.03
2019-05-26T20:20:54.613Z,98313.66
2019-05-26T20:23:23.329Z,98311.71
2019-05-26T20:25:52.031Z,98310.19
2019-05-26T20:28:23.306Z,98314.11
2019-05-26T20:30:52.032Z,98312.75
2019-05-26T20:33:20.739Z,98310.66
2019-05-26T20:35:49.449Z,98309.28
2019-05-26T20:38:18.255Z,98306.41
2019-05-26T20:40:47.413Z,98304.24
2019-05-26T20:43:16.122Z,98308.75
2019-05-26T20:45:44.831Z,98304.94
2019-05-26T20:48:13.544Z,98311.92
2019-05-26T20:50:42.257Z,98309.77
2019-05-26T20:53:11.018Z,98314.94
2019-05-26T20:55:39.728Z,98317.91
2019-05-26T20:58:08.436Z,98325.23
2019-05-26T21:00:37.488Z,98327.09
2019-05-26T21:03:06.387Z,98324.92
2019-05-26T21:05:35.115Z,98326.77
2019-05-26T21:08:03.821Z,98329.47
2019-05-26T21:10:32.642Z,98328.27
2019-05-26T21:13:01.354Z,98323.45
2019-05-26T21:15:30.061Z,98332.72
2019-05-26T21:17:59.029Z,98340.06
2019-05-26T21:20:27.741Z,98336.83
2019-05-26T21:22:56.460Z,98340.72
2019-05-26T21:25:25.230Z,98341.88
2019-05-26T21:27:54.026Z,98344.73
2019-05-26T21:30:22.738Z,98355.84
2019-05-26T21:32:51.463Z,98348.86
2019-05-26T21:35:20.166Z,98354.67
2019-05-26T21:37:48.873Z,98353.56
2019-05-26T21:40:17.821Z,98355.81
2019-05-26T21:42:46.533Z,98348.91
2019-05-26T21:45:15.364Z,98354.67
2019-05-26T21:47:44.094Z,98347.70
2019-05-26T21:50:13.363Z,98334.50
2019-05-26T21:52:42.078Z,98337.19
2019-05-26T21:55:12.398Z,98335.91
2019-05-26T21:57:41.101Z,98330.89
2019-05-26T22:00:12.104Z,98331.09
2019-05-26T22:02:40.861Z,98331.27
2019-05-26T22:05:10.561Z,98341.37
2019-05-26T22:07:39.414Z,98347.55
2019-05-26T22:10:08.234Z,98342.34
2019-05-26T22:12:36.941Z,98341.08
2019-05-26T22:15:07.612Z,98348.16
2019-05-26T22:17:36.322Z,98342.07
2019-05-26T22:20:07.134Z,98333.96
2019-05-26T22:22:35.961Z,98332.98
2019-05-26T22:25:06.571Z,98338.98
2019-05-26T22:27:35.281Z,98330.59
2019-05-26T22:30:05.404Z,98328.86
2019-05-26T22:32:34.118Z,98336.38
2019-05-26T22:35:02.872Z,98336.42
2019-05-26T22:37:31.583Z,98332.96
2019-05-26T22:40:00.312Z,98331.16
2019-05-26T22:42:29.017Z,98334.64
2019-05-26T22:44:57.730Z,98337.70
2019-05-26T22:47:26.495Z,98341.08
2019-05-26T22:49:56.778Z,98333.95
2019-05-26T22:52:25.487Z,98330.91
2019-05-26T22:54:55.116Z,98326.57
2019-05-26T22:57:23.815Z,98326.52
2019-05-26T22:59:52.551Z,98325.65
2019-05-26T23:02:21.270Z,98325.20
2019-05-26T23:04:49.973Z,98321.83
2019-05-26T23:07:18.726Z,98329.01
2019-05-26T23:09:47.435Z,98323.47
2019-05-26T23:12:16.139Z,98321.80
2019-05-26T23:14:44.901Z,98319.58
2019-05-26T23:17:13.600Z,98317.85
2019-05-26T23:19:42.298Z,98321.44
2019-05-26T23:22:11.013Z,98318.37
2019-05-26T23:24:39.713Z,98317.56
2019-05-26T23:27:08.459Z,98320.17
2019-05-26T23:29:37.160Z,98323.16
2019-05-26T23:32:05.859Z,98320.16
2019-05-26T23:34:34.576Z,98322.44
2019-05-26T23:37:03.293Z,98318.91
2019-05-26T23:39:32.026Z,98316.47
2019-05-26T23:42:00.728Z,98315.16
2019-05-26T23:44:29.431Z,98315.63
2019-05-26T23:46:58.134Z,98314.44
2019-05-26T23:49:26.837Z,98318.84
2019-05-26T23:51:55.584Z,98321.47
2019-05-26T23:54:24.291Z,98315.36
2019-05-26T23:56:53.001Z,98322.33
2019-05-26T23:59:21.751Z,98326.77
